sensor_id;sensor_type;location;lat;lon;timestamp;P1;durP1;ratioP1;P2;durP2;ratioP2
25980;SDS011;13772;52.996;9.124;2023-07-13T06:27:34;13.25;;;2.50;;
25980;SDS011;13772;52.996;9.124;2023-07-13T06:29:59;9.52;;;2.85;;
25980;SDS011;13772;52.996;9.124;2023-07-13T06:32:24;6.88;;;2.45;;
25980;SDS011;13772;52.996;9.124;2023-07-13T06:34:50;14.85;;;3.20;;
25980;SDS011;13772;52.996;9.124;2023-07-13T06:37:16;10.65;;;2.83;;
25980;SDS011;13772;52.996;9.124;2023-07-13T06:39:42;17.67;;;3.03;;
25980;SDS011;13772;52.996;9.124;2023-07-13T06:42:07;13.63;;;3.35;;
25980;SDS011;13772;52.996;9.124;2023-07-13T06:44:32;13.45;;;3.53;;
25980;SDS011;13772;52.996;9.124;2023-07-13T06:46:57;8.93;;;2.85;;
25980;SDS011;13772;52.996;9.124;2023-07-13T06:49:22;8.48;;;2.88;;
25980;SDS011;13772;52.996;9.124;2023-07-13T06:51:48;11.80;;;3.42;;
25980;SDS011;13772;52.996;9.124;2023-07-13T06:54:13;17.65;;;3.67;;
25980;SDS011;13772;52.996;9.124;2023-07-13T06:56:39;12.00;;;3.55;;
25980;SDS011;13772;52.996;9.124;2023-07-13T06:59:04;12.45;;;4.20;;
25980;SDS011;13772;52.996;9.124;2023-07-13T07:01:29;15.65;;;3.78;;
25980;SDS011;13772;52.996;9.124;2023-07-13T07:03:54;12.32;;;3.30;;
25980;SDS011;13772;52.996;9.124;2023-07-13T07:06:20;16.08;;;3.97;;
25980;SDS011;13772;52.996;9.124;2023-07-13T07:08:48;12.10;;;3.57;;
25980;SDS011;13772;52.996;9.124;2023-07-13T07:11:17;12.20;;;3.75;;
25980;SDS011;13772;52.996;9.124;2023-07-13T07:13:42;11.60;;;3.40;;
25980;SDS011;13772;52.996;9.124;2023-07-13T07:16:08;12.95;;;3.92;;
25980;SDS011;13772;52.996;9.124;2023-07-13T07:18:33;10.88;;;3.65;;
25980;SDS011;13772;52.996;9.124;2023-07-13T07:20:59;13.20;;;3.22;;
25980;SDS011;13772;52.996;9.124;2023-07-13T07:23:24;11.85;;;3.22;;
25980;SDS011;13772;52.996;9.124;2023-07-13T07:25:49;15.02;;;3.92;;
25980;SDS011;13772;52.996;9.124;2023-07-13T07:28:15;11.52;;;4.22;;
25980;SDS011;13772;52.996;9.124;2023-07-13T07:30:43;11.45;;;3.38;;
25980;SDS011;13772;52.996;9.124;2023-07-13T07:33:08;12.23;;;3.72;;
25980;SDS011;13772;52.996;9.124;2023-07-13T07:35:33;12.95;;;3.50;;
25980;SDS011;13772;52.996;9.124;2023-07-13T07:37:59;11.93;;;3.17;;
25980;SDS011;13772;52.996;9.124;2023-07-13T07:40:24;14.10;;;3.92;;
25980;SDS011;13772;52.996;9.124;2023-07-13T07:42:49;12.25;;;3.25;;
25980;SDS011;13772;52.996;9.124;2023-07-13T07:45:14;13.25;;;3.17;;
25980;SDS011;13772;52.996;9.124;2023-07-13T07:47:40;10.50;;;3.65;;
25980;SDS011;13772;52.996;9.124;2023-07-13T07:50:05;15.77;;;3.50;;
25980;SDS011;13772;52.996;9.124;2023-07-13T07:52:30;14.63;;;3.63;;
25980;SDS011;13772;52.996;9.124;2023-07-13T07:54:55;9.20;;;2.97;;
25980;SDS011;13772;52.996;9.124;2023-07-13T07:57:21;12.75;;;3.78;;
25980;SDS011;13772;52.996;9.124;2023-07-13T07:59:46;11.85;;;2.83;;
25980;SDS011;13772;52.996;9.124;2023-07-13T08:02:11;15.35;;;3.60;;
25980;SDS011;13772;52.996;9.124;2023-07-13T08:04:36;9.07;;;2.92;;
25980;SDS011;13772;52.996;9.124;2023-07-13T08:07:02;18.35;;;4.05;;
25980;SDS011;13772;52.996;9.124;2023-07-13T08:09:28;11.68;;;3.58;;
25980;SDS011;13772;52.996;9.124;2023-07-13T08:11:53;16.75;;;3.35;;
25980;SDS011;13772;52.996;9.124;2023-07-13T08:14:19;10.77;;;2.92;;
25980;SDS011;13772;52.996;9.124;2023-07-13T08:16:45;9.80;;;3.15;;
25980;SDS011;13772;52.996;9.124;2023-07-13T08:19:10;9.45;;;3.15;;
25980;SDS011;13772;52.996;9.124;2023-07-13T08:21:36;12.15;;;3.33;;
25980;SDS011;13772;52.996;9.124;2023-07-13T08:24:02;10.63;;;3.33;;
25980;SDS011;13772;52.996;9.124;2023-07-13T08:26:27;11.10;;;3.28;;
25980;SDS011;13772;52.996;9.124;2023-07-13T08:28:52;8.32;;;3.17;;
25980;SDS011;13772;52.996;9.124;2023-07-13T08:31:17;11.90;;;4.40;;
25980;SDS011;13772;52.996;9.124;2023-07-13T08:33:43;10.02;;;3.65;;
25980;SDS011;13772;52.996;9.124;2023-07-13T08:36:08;10.77;;;3.38;;
25980;SDS011;13772;52.996;9.124;2023-07-13T08:38:33;12.35;;;3.90;;
25980;SDS011;13772;52.996;9.124;2023-07-13T08:40:59;12.00;;;3.65;;
25980;SDS011;13772;52.996;9.124;2023-07-13T08:43:25;8.85;;;3.95;;
25980;SDS011;13772;52.996;9.124;2023-07-13T08:46:04;12.10;;;3.10;;
25980;SDS011;13772;52.996;9.124;2023-07-13T08:48:35;8.75;;;3.33;;
25980;SDS011;13772;52.996;9.124;2023-07-13T08:51:15;6.78;;;3.28;;
25980;SDS011;13772;52.996;9.124;2023-07-13T08:53:46;14.63;;;3.33;;
25980;SDS011;13772;52.996;9.124;2023-07-13T08:56:19;10.18;;;3.78;;
25980;SDS011;13772;52.996;9.124;2023-07-13T08:58:46;7.45;;;3.10;;
25980;SDS011;13772;52.996;9.124;2023-07-13T09:01:15;8.57;;;3.15;;
25980;SDS011;13772;52.996;9.124;2023-07-13T09:03:50;10.65;;;3.47;;
25980;SDS011;13772;52.996;9.124;2023-07-13T09:06:17;8.50;;;3.05;;
25980;SDS011;13772;52.996;9.124;2023-07-13T09:08:48;9.95;;;3.25;;
25980;SDS011;13772;52.996;9.124;2023-07-13T09:14:02;11.05;;;3.00;;
25980;SDS011;13772;52.996;9.124;2023-07-13T09:16:29;8.15;;;3.08;;
25980;SDS011;13772;52.996;9.124;2023-07-13T09:18:56;7.32;;;2.67;;
25980;SDS011;13772;52.996;9.124;2023-07-13T09:21:25;8.35;;;2.42;;
25980;SDS011;13772;52.996;9.124;2023-07-13T09:23:53;8.77;;;2.55;;
25980;SDS011;13772;52.996;9.124;2023-07-13T09:26:22;8.15;;;2.60;;
25980;SDS011;13772;52.996;9.124;2023-07-13T09:28:51;6.88;;;2.30;;
25980;SDS011;13772;52.996;9.124;2023-07-13T09:33:47;8.77;;;2.35;;
25980;SDS011;13772;52.996;9.124;2023-07-13T09:36:27;8.00;;;2.55;;
25980;SDS011;13772;52.996;9.124;2023-07-13T09:39:36;9.35;;;2.72;;
25980;SDS011;13772;52.996;9.124;2023-07-13T09:41:47;5.85;;;2.28;;
25980;SDS011;13772;52.996;9.124;2023-07-13T09:44:18;10.38;;;2.63;;
25980;SDS011;13772;52.996;9.124;2023-07-13T09:46:53;11.20;;;2.35;;
25980;SDS011;13772;52.996;9.124;2023-07-13T09:49:22;11.48;;;2.42;;
25980;SDS011;13772;52.996;9.124;2023-07-13T09:51:48;8.27;;;2.50;;
25980;SDS011;13772;52.996;9.124;2023-07-13T09:54:24;5.13;;;1.85;;
25980;SDS011;13772;52.996;9.124;2023-07-13T09:56:53;8.18;;;2.03;;
25980;SDS011;13772;52.996;9.124;2023-07-13T09:59:23;7.13;;;1.70;;
25980;SDS011;13772;52.996;9.124;2023-07-13T10:01:49;5.70;;;2.13;;
25980;SDS011;13772;52.996;9.124;2023-07-13T10:04:16;6.72;;;2.20;;
25980;SDS011;13772;52.996;9.124;2023-07-13T10:06:43;7.00;;;2.03;;
25980;SDS011;13772;52.996;9.124;2023-07-13T10:09:09;6.63;;;1.95;;
25980;SDS011;13772;52.996;9.124;2023-07-13T10:11:35;6.82;;;1.77;;
25980;SDS011;13772;52.996;9.124;2023-07-13T10:14:03;5.95;;;2.20;;
25980;SDS011;13772;52.996;9.124;2023-07-13T10:16:34;3.65;;;1.52;;
25980;SDS011;13772;52.996;9.124;2023-07-13T10:19:02;4.95;;;2.00;;
25980;SDS011;13772;52.996;9.124;2023-07-13T10:21:35;4.43;;;1.77;;
25980;SDS011;13772;52.996;9.124;2023-07-13T10:24:06;6.97;;;2.03;;
25980;SDS011;13772;52.996;9.124;2023-07-13T10:26:36;6.25;;;2.03;;
25980;SDS011;13772;52.996;9.124;2023-07-13T10:29:07;6.45;;;1.75;;
25980;SDS011;13772;52.996;9.124;2023-07-13T10:31:34;6.10;;;1.85;;
25980;SDS011;13772;52.996;9.124;2023-07-13T10:34:02;11.20;;;2.22;;
25980;SDS011;13772;52.996;9.124;2023-07-13T10:36:29;7.50;;;1.77;;
25980;SDS011;13772;52.996;9.124;2023-07-13T10:38:56;4.25;;;1.60;;
25980;SDS011;13772;52.996;9.124;2023-07-13T10:41:22;5.97;;;2.00;;
25980;SDS011;13772;52.996;9.124;2023-07-13T10:43:50;6.47;;;2.10;;
25980;SDS011;13772;52.996;9.124;2023-07-13T10:46:17;6.47;;;2.05;;
25980;SDS011;13772;52.996;9.124;2023-07-13T10:48:43;8.13;;;2.25;;
25980;SDS011;13772;52.996;9.124;2023-07-13T10:51:10;7.47;;;1.80;;
25980;SDS011;13772;52.996;9.124;2023-07-13T10:53:37;7.50;;;2.22;;
25980;SDS011;13772;52.996;9.124;2023-07-13T10:58:33;4.65;;;1.67;;
25980;SDS011;13772;52.996;9.124;2023-07-13T11:03:31;7.18;;;1.92;;
25980;SDS011;13772;52.996;9.124;2023-07-13T11:08:38;6.28;;;1.98;;
25980;SDS011;13772;52.996;9.124;2023-07-13T11:13:55;4.60;;;1.77;;
25980;SDS011;13772;52.996;9.124;2023-07-13T11:18:49;6.65;;;2.00;;
25980;SDS011;13772;52.996;9.124;2023-07-13T11:21:18;6.90;;;2.03;;
25980;SDS011;13772;52.996;9.124;2023-07-13T11:23:45;5.15;;;1.63;;
25980;SDS011;13772;52.996;9.124;2023-07-13T11:29:00;5.05;;;1.60;;
25980;SDS011;13772;52.996;9.124;2023-07-13T11:31:32;4.25;;;1.70;;
25980;SDS011;13772;52.996;9.124;2023-07-13T11:33:58;5.60;;;1.98;;
25980;SDS011;13772;52.996;9.124;2023-07-13T11:36:27;7.35;;;2.70;;
25980;SDS011;13772;52.996;9.124;2023-07-13T11:41:43;5.88;;;2.15;;
25980;SDS011;13772;52.996;9.124;2023-07-13T11:46:37;5.57;;;1.97;;
25980;SDS011;13772;52.996;9.124;2023-07-13T11:49:04;5.75;;;2.08;;
25980;SDS011;13772;52.996;9.124;2023-07-13T11:51:30;4.30;;;1.60;;
25980;SDS011;13772;52.996;9.124;2023-07-13T11:53:56;5.97;;;1.70;;
25980;SDS011;13772;52.996;9.124;2023-07-13T11:56:22;7.43;;;2.60;;
25980;SDS011;13772;52.996;9.124;2023-07-13T11:58:49;6.13;;;1.88;;
25980;SDS011;13772;52.996;9.124;2023-07-13T12:01:22;6.50;;;2.20;;
25980;SDS011;13772;52.996;9.124;2023-07-13T12:03:49;5.07;;;2.28;;
25980;SDS011;13772;52.996;9.124;2023-07-13T12:06:23;4.88;;;2.30;;
25980;SDS011;13772;52.996;9.124;2023-07-13T12:08:48;4.97;;;2.05;;
25980;SDS011;13772;52.996;9.124;2023-07-13T12:11:15;5.60;;;1.45;;
25980;SDS011;13772;52.996;9.124;2023-07-13T12:13:41;3.53;;;1.73;;
25980;SDS011;13772;52.996;9.124;2023-07-13T12:16:10;4.38;;;1.60;;
25980;SDS011;13772;52.996;9.124;2023-07-13T12:18:36;6.70;;;1.95;;
25980;SDS011;13772;52.996;9.124;2023-07-13T12:21:02;5.30;;;2.30;;
25980;SDS011;13772;52.996;9.124;2023-07-13T12:23:32;4.72;;;2.00;;
25980;SDS011;13772;52.996;9.124;2023-07-13T12:25:58;5.82;;;2.10;;
25980;SDS011;13772;52.996;9.124;2023-07-13T12:28:32;4.70;;;1.88;;
25980;SDS011;13772;52.996;9.124;2023-07-13T12:30:58;5.30;;;1.65;;
25980;SDS011;13772;52.996;9.124;2023-07-13T12:33:24;5.68;;;2.10;;
25980;SDS011;13772;52.996;9.124;2023-07-13T12:35:52;4.68;;;1.65;;
25980;SDS011;13772;52.996;9.124;2023-07-13T12:38:17;4.88;;;1.50;;
25980;SDS011;13772;52.996;9.124;2023-07-13T12:40:43;3.88;;;1.60;;
25980;SDS011;13772;52.996;9.124;2023-07-13T12:43:11;3.75;;;1.70;;
25980;SDS011;13772;52.996;9.124;2023-07-13T12:45:37;2.40;;;1.60;;
25980;SDS011;13772;52.996;9.124;2023-07-13T12:48:04;5.43;;;1.55;;
25980;SDS011;13772;52.996;9.124;2023-07-13T12:50:34;3.45;;;1.70;;
25980;SDS011;13772;52.996;9.124;2023-07-13T12:53:02;2.60;;;1.50;;
25980;SDS011;13772;52.996;9.124;2023-07-13T12:55:37;2.45;;;1.67;;
25980;SDS011;13772;52.996;9.124;2023-07-13T12:58:06;3.15;;;1.60;;
25980;SDS011;13772;52.996;9.124;2023-07-13T13:00:35;3.00;;;1.35;;
25980;SDS011;13772;52.996;9.124;2023-07-13T13:03:21;5.20;;;1.60;;
25980;SDS011;13772;52.996;9.124;2023-07-13T13:05:47;2.65;;;1.30;;
25980;SDS011;13772;52.996;9.124;2023-07-13T13:08:13;3.25;;;1.40;;
25980;SDS011;13772;52.996;9.124;2023-07-13T13:10:38;3.20;;;1.25;;
25980;SDS011;13772;52.996;9.124;2023-07-13T13:13:04;3.47;;;1.70;;
25980;SDS011;13772;52.996;9.124;2023-07-13T13:15:29;2.55;;;1.30;;
25980;SDS011;13772;52.996;9.124;2023-07-13T13:17:55;2.53;;;1.38;;
25980;SDS011;13772;52.996;9.124;2023-07-13T13:20:21;3.33;;;1.50;;
25980;SDS011;13772;52.996;9.124;2023-07-13T13:22:47;2.35;;;1.38;;
25980;SDS011;13772;52.996;9.124;2023-07-13T13:25:13;2.20;;;1.10;;
25980;SDS011;13772;52.996;9.124;2023-07-13T13:27:39;3.00;;;1.10;;
25980;SDS011;13772;52.996;9.124;2023-07-13T13:30:09;3.03;;;1.33;;
25980;SDS011;13772;52.996;9.124;2023-07-13T13:32:35;3.75;;;1.50;;
25980;SDS011;13772;52.996;9.124;2023-07-13T13:35:00;5.32;;;1.10;;
25980;SDS011;13772;52.996;9.124;2023-07-13T13:37:26;3.45;;;1.05;;
25980;SDS011;13772;52.996;9.124;2023-07-13T13:39:51;1.70;;;1.00;;
25980;SDS011;13772;52.996;9.124;2023-07-13T13:42:18;1.55;;;0.82;;
25980;SDS011;13772;52.996;9.124;2023-07-13T13:44:46;3.13;;;1.23;;
25980;SDS011;13772;52.996;9.124;2023-07-13T13:47:20;3.45;;;1.00;;
25980;SDS011;13772;52.996;9.124;2023-07-13T13:49:46;2.63;;;1.10;;
25980;SDS011;13772;52.996;9.124;2023-07-13T13:52:12;3.05;;;0.90;;
25980;SDS011;13772;52.996;9.124;2023-07-13T13:54:38;2.00;;;0.90;;
25980;SDS011;13772;52.996;9.124;2023-07-13T13:57:03;2.13;;;1.10;;
25980;SDS011;13772;52.996;9.124;2023-07-13T13:59:29;2.25;;;1.23;;
25980;SDS011;13772;52.996;9.124;2023-07-13T14:01:57;1.63;;;1.10;;
25980;SDS011;13772;52.996;9.124;2023-07-13T14:04:25;2.38;;;1.10;;
25980;SDS011;13772;52.996;9.124;2023-07-13T14:06:50;2.28;;;0.90;;
25980;SDS011;13772;52.996;9.124;2023-07-13T14:09:16;2.47;;;1.08;;
25980;SDS011;13772;52.996;9.124;2023-07-13T14:11:43;2.88;;;1.35;;
25980;SDS011;13772;52.996;9.124;2023-07-13T14:14:09;4.55;;;1.20;;
25980;SDS011;13772;52.996;9.124;2023-07-13T14:16:37;3.38;;;1.23;;
25980;SDS011;13772;52.996;9.124;2023-07-13T14:19:02;2.20;;;1.33;;
25980;SDS011;13772;52.996;9.124;2023-07-13T14:21:28;1.77;;;1.02;;
25980;SDS011;13772;52.996;9.124;2023-07-13T14:23:54;2.25;;;1.50;;
25980;SDS011;13772;52.996;9.124;2023-07-13T14:26:20;4.88;;;1.90;;
25980;SDS011;13772;52.996;9.124;2023-07-13T14:28:49;3.33;;;1.60;;
25980;SDS011;13772;52.996;9.124;2023-07-13T14:31:16;3.42;;;1.92;;
25980;SDS011;13772;52.996;9.124;2023-07-13T14:33:42;3.67;;;2.20;;
25980;SDS011;13772;52.996;9.124;2023-07-13T14:36:50;3.70;;;2.10;;
25980;SDS011;13772;52.996;9.124;2023-07-13T14:38:56;4.18;;;2.00;;
25980;SDS011;13772;52.996;9.124;2023-07-13T14:41:22;4.28;;;2.30;;
25980;SDS011;13772;52.996;9.124;2023-07-13T14:43:48;3.92;;;2.42;;
25980;SDS011;13772;52.996;9.124;2023-07-13T14:46:29;5.30;;;2.58;;
25980;SDS011;13772;52.996;9.124;2023-07-13T14:48:57;7.20;;;3.15;;
25980;SDS011;13772;52.996;9.124;2023-07-13T14:51:24;6.13;;;2.45;;
25980;SDS011;13772;52.996;9.124;2023-07-13T14:53:49;8.55;;;3.10;;
25980;SDS011;13772;52.996;9.124;2023-07-13T14:56:15;5.43;;;2.67;;
25980;SDS011;13772;52.996;9.124;2023-07-13T14:58:42;4.55;;;2.30;;
25980;SDS011;13772;52.996;9.124;2023-07-13T15:01:10;5.38;;;2.25;;
25980;SDS011;13772;52.996;9.124;2023-07-13T15:03:37;6.63;;;2.80;;
25980;SDS011;13772;52.996;9.124;2023-07-13T15:06:08;4.13;;;1.85;;
25980;SDS011;13772;52.996;9.124;2023-07-13T15:08:35;5.88;;;2.28;;
25980;SDS011;13772;52.996;9.124;2023-07-13T15:11:00;3.47;;;1.73;;
25980;SDS011;13772;52.996;9.124;2023-07-13T15:13:25;4.93;;;1.90;;
25980;SDS011;13772;52.996;9.124;2023-07-13T15:15:51;5.38;;;1.80;;
25980;SDS011;13772;52.996;9.124;2023-07-13T15:18:18;5.57;;;1.80;;
25980;SDS011;13772;52.996;9.124;2023-07-13T15:20:45;5.07;;;1.60;;
25980;SDS011;13772;52.996;9.124;2023-07-13T15:23:11;4.53;;;1.70;;
25980;SDS011;13772;52.996;9.124;2023-07-13T15:25:37;5.45;;;1.95;;
25980;SDS011;13772;52.996;9.124;2023-07-13T15:28:02;5.65;;;1.65;;
25980;SDS011;13772;52.996;9.124;2023-07-13T15:30:46;3.90;;;1.60;;
25980;SDS011;13772;52.996;9.124;2023-07-13T15:33:17;2.17;;;1.20;;
25980;SDS011;13772;52.996;9.124;2023-07-13T15:35:44;4.03;;;1.20;;
25980;SDS011;13772;52.996;9.124;2023-07-13T15:38:14;2.72;;;1.30;;
25980;SDS011;13772;52.996;9.124;2023-07-13T15:40:40;4.32;;;1.25;;
25980;SDS011;13772;52.996;9.124;2023-07-13T15:43:10;5.25;;;1.35;;
25980;SDS011;13772;52.996;9.124;2023-07-13T15:45:36;3.15;;;1.30;;
25980;SDS011;13772;52.996;9.124;2023-07-13T15:48:01;2.90;;;1.30;;
25980;SDS011;13772;52.996;9.124;2023-07-13T15:50:26;4.05;;;1.60;;
25980;SDS011;13772;52.996;9.124;2023-07-13T15:52:56;2.65;;;1.13;;
25980;SDS011;13772;52.996;9.124;2023-07-13T15:55:23;2.80;;;1.02;;
25980;SDS011;13772;52.996;9.124;2023-07-13T15:57:49;2.50;;;1.05;;
25980;SDS011;13772;52.996;9.124;2023-07-13T16:00:22;2.25;;;0.60;;
25980;SDS011;13772;52.996;9.124;2023-07-13T16:02:48;1.48;;;0.50;;
25980;SDS011;13772;52.996;9.124;2023-07-13T16:05:14;1.10;;;0.60;;
25980;SDS011;13772;52.996;9.124;2023-07-13T16:07:40;1.45;;;0.50;;
25980;SDS011;13772;52.996;9.124;2023-07-13T16:10:07;2.85;;;0.80;;
25980;SDS011;13772;52.996;9.124;2023-07-13T16:12:32;2.15;;;0.70;;
25980;SDS011;13772;52.996;9.124;2023-07-13T16:14:58;4.60;;;1.00;;
25980;SDS011;13772;52.996;9.124;2023-07-13T16:17:24;2.70;;;1.20;;
25980;SDS011;13772;52.996;9.124;2023-07-13T16:19:49;3.45;;;0.95;;
25980;SDS011;13772;52.996;9.124;2023-07-13T16:22:15;2.53;;;0.80;;
25980;SDS011;13772;52.996;9.124;2023-07-13T16:24:41;1.75;;;0.70;;
25980;SDS011;13772;52.996;9.124;2023-07-13T16:27:10;1.50;;;0.80;;
25980;SDS011;13772;52.996;9.124;2023-07-13T16:29:35;0.90;;;0.70;;
25980;SDS011;13772;52.996;9.124;2023-07-13T16:32:02;1.42;;;0.65;;
25980;SDS011;13772;52.996;9.124;2023-07-13T16:34:31;0.82;;;0.50;;
25980;SDS011;13772;52.996;9.124;2023-07-13T16:39:22;3.55;;;1.10;;
25980;SDS011;13772;52.996;9.124;2023-07-13T16:41:52;2.72;;;0.82;;
25980;SDS011;13772;52.996;9.124;2023-07-13T16:44:18;1.38;;;0.60;;
25980;SDS011;13772;52.996;9.124;2023-07-13T16:46:48;3.80;;;1.10;;
25980;SDS011;13772;52.996;9.124;2023-07-13T16:49:33;3.20;;;1.30;;
25980;SDS011;13772;52.996;9.124;2023-07-13T16:52:00;4.30;;;1.58;;
25980;SDS011;13772;52.996;9.124;2023-07-13T16:54:29;6.75;;;2.17;;
25980;SDS011;13772;52.996;9.124;2023-07-13T16:56:56;19.98;;;2.92;;
25980;SDS011;13772;52.996;9.124;2023-07-13T16:59:22;5.35;;;2.05;;
25980;SDS011;13772;52.996;9.124;2023-07-13T17:01:47;6.35;;;2.20;;
25980;SDS011;13772;52.996;9.124;2023-07-13T17:04:13;6.05;;;1.83;;
25980;SDS011;13772;52.996;9.124;2023-07-13T17:06:40;6.68;;;2.20;;
25980;SDS011;13772;52.996;9.124;2023-07-13T17:09:09;9.40;;;2.15;;
25980;SDS011;13772;52.996;9.124;2023-07-13T17:11:36;3.42;;;2.08;;
25980;SDS011;13772;52.996;9.124;2023-07-13T17:14:09;3.92;;;1.85;;
25980;SDS011;13772;52.996;9.124;2023-07-13T17:16:38;6.32;;;1.85;;
25980;SDS011;13772;52.996;9.124;2023-07-13T17:19:04;6.93;;;2.22;;
25980;SDS011;13772;52.996;9.124;2023-07-13T17:21:30;3.15;;;1.85;;
25980;SDS011;13772;52.996;9.124;2023-07-13T17:23:55;4.70;;;2.17;;
25980;SDS011;13772;52.996;9.124;2023-07-13T17:26:21;4.68;;;2.33;;
25980;SDS011;13772;52.996;9.124;2023-07-13T17:28:47;6.63;;;2.92;;
25980;SDS011;13772;52.996;9.124;2023-07-13T17:31:16;4.43;;;2.10;;
25980;SDS011;13772;52.996;9.124;2023-07-13T17:33:43;6.07;;;2.53;;
25980;SDS011;13772;52.996;9.124;2023-07-13T17:36:12;4.35;;;2.55;;
25980;SDS011;13772;52.996;9.124;2023-07-13T17:38:39;5.25;;;2.33;;
25980;SDS011;13772;52.996;9.124;2023-07-13T17:41:12;7.57;;;2.30;;
25980;SDS011;13772;52.996;9.124;2023-07-13T17:43:39;2.97;;;1.92;;
25980;SDS011;13772;52.996;9.124;2023-07-13T17:46:09;5.50;;;2.70;;
25980;SDS011;13772;52.996;9.124;2023-07-13T17:48:35;5.93;;;2.65;;
25980;SDS011;13772;52.996;9.124;2023-07-13T17:51:02;7.20;;;2.30;;
25980;SDS011;13772;52.996;9.124;2023-07-13T17:53:27;5.68;;;2.40;;
25980;SDS011;13772;52.996;9.124;2023-07-13T17:55:53;4.20;;;2.20;;
25980;SDS011;13772;52.996;9.124;2023-07-13T17:58:19;3.65;;;2.25;;
25980;SDS011;13772;52.996;9.124;2023-07-13T18:00:46;4.03;;;2.33;;
25980;SDS011;13772;52.996;9.124;2023-07-13T18:03:19;4.95;;;2.30;;
25980;SDS011;13772;52.996;9.124;2023-07-13T18:05:45;4.32;;;2.10;;
25980;SDS011;13772;52.996;9.124;2023-07-13T18:08:27;5.85;;;2.55;;
25980;SDS011;13772;52.996;9.124;2023-07-13T18:10:54;5.30;;;2.60;;
25980;SDS011;13772;52.996;9.124;2023-07-13T18:13:19;3.55;;;2.30;;
25980;SDS011;13772;52.996;9.124;2023-07-13T18:15:45;6.05;;;2.42;;
25980;SDS011;13772;52.996;9.124;2023-07-13T18:18:11;8.18;;;2.33;;
25980;SDS011;13772;52.996;9.124;2023-07-13T18:20:37;5.55;;;2.83;;
25980;SDS011;13772;52.996;9.124;2023-07-13T18:23:08;5.57;;;2.78;;
25980;SDS011;13772;52.996;9.124;2023-07-13T18:25:38;9.93;;;2.80;;
25980;SDS011;13772;52.996;9.124;2023-07-13T18:28:03;5.95;;;2.83;;
25980;SDS011;13772;52.996;9.124;2023-07-13T18:30:29;7.72;;;3.05;;
25980;SDS011;13772;52.996;9.124;2023-07-13T18:32:54;5.57;;;3.03;;
25980;SDS011;13772;52.996;9.124;2023-07-13T18:35:31;5.88;;;2.92;;
25980;SDS011;13772;52.996;9.124;2023-07-13T18:37:57;6.95;;;3.40;;
25980;SDS011;13772;52.996;9.124;2023-07-13T18:40:23;6.75;;;3.50;;
25980;SDS011;13772;52.996;9.124;2023-07-13T18:42:52;5.60;;;2.85;;
25980;SDS011;13772;52.996;9.124;2023-07-13T18:45:18;5.38;;;3.05;;
25980;SDS011;13772;52.996;9.124;2023-07-13T18:47:44;5.68;;;3.63;;
25980;SDS011;13772;52.996;9.124;2023-07-13T18:50:14;7.70;;;3.55;;
25980;SDS011;13772;52.996;9.124;2023-07-13T18:52:39;8.55;;;4.15;;
25980;SDS011;13772;52.996;9.124;2023-07-13T18:55:12;7.20;;;3.78;;
25980;SDS011;13772;52.996;9.124;2023-07-13T18:57:37;11.13;;;4.15;;
25980;SDS011;13772;52.996;9.124;2023-07-13T19:00:03;5.70;;;3.25;;
25980;SDS011;13772;52.996;9.124;2023-07-13T19:02:28;7.43;;;4.55;;
25980;SDS011;13772;52.996;9.124;2023-07-13T19:04:55;6.55;;;3.50;;
25980;SDS011;13772;52.996;9.124;2023-07-13T19:07:23;5.22;;;3.33;;
25980;SDS011;13772;52.996;9.124;2023-07-13T19:09:49;5.47;;;3.40;;
25980;SDS011;13772;52.996;9.124;2023-07-13T19:12:15;6.15;;;3.00;;
25980;SDS011;13772;52.996;9.124;2023-07-13T19:14:41;6.90;;;2.83;;
25980;SDS011;13772;52.996;9.124;2023-07-13T19:17:09;4.95;;;3.25;;
25980;SDS011;13772;52.996;9.124;2023-07-13T19:19:34;4.70;;;3.28;;
25980;SDS011;13772;52.996;9.124;2023-07-13T19:21:59;6.50;;;2.90;;
25980;SDS011;13772;52.996;9.124;2023-07-13T19:24:27;4.78;;;3.28;;
25980;SDS011;13772;52.996;9.124;2023-07-13T19:26:53;7.10;;;3.75;;
25980;SDS011;13772;52.996;9.124;2023-07-13T19:29:20;8.18;;;3.75;;
25980;SDS011;13772;52.996;9.124;2023-07-13T19:31:45;5.15;;;3.65;;
25980;SDS011;13772;52.996;9.124;2023-07-13T19:34:16;7.05;;;3.40;;
25980;SDS011;13772;52.996;9.124;2023-07-13T19:36:42;8.80;;;3.33;;
25980;SDS011;13772;52.996;9.124;2023-07-13T19:39:26;6.18;;;3.28;;
25980;SDS011;13772;52.996;9.124;2023-07-13T19:41:53;6.13;;;3.30;;
25980;SDS011;13772;52.996;9.124;2023-07-13T19:44:19;5.68;;;3.22;;
25980;SDS011;13772;52.996;9.124;2023-07-13T19:46:46;8.02;;;3.33;;
25980;SDS011;13772;52.996;9.124;2023-07-13T19:49:11;6.32;;;4.25;;
25980;SDS011;13772;52.996;9.124;2023-07-13T19:51:37;10.57;;;4.20;;
25980;SDS011;13772;52.996;9.124;2023-07-13T19:54:09;6.93;;;3.88;;
25980;SDS011;13772;52.996;9.124;2023-07-13T19:56:34;9.68;;;3.72;;
25980;SDS011;13772;52.996;9.124;2023-07-13T19:59:00;10.52;;;4.53;;
25980;SDS011;13772;52.996;9.124;2023-07-13T20:01:25;6.70;;;3.67;;
25980;SDS011;13772;52.996;9.124;2023-07-13T20:03:52;9.60;;;4.35;;
25980;SDS011;13772;52.996;9.124;2023-07-13T20:08:46;7.88;;;4.15;;
25980;SDS011;13772;52.996;9.124;2023-07-13T20:11:11;9.23;;;3.72;;
25980;SDS011;13772;52.996;9.124;2023-07-13T20:13:37;8.25;;;4.28;;
25980;SDS011;13772;52.996;9.124;2023-07-13T20:16:02;11.27;;;4.28;;
25980;SDS011;13772;52.996;9.124;2023-07-13T20:18:28;6.60;;;3.88;;
25980;SDS011;13772;52.996;9.124;2023-07-13T20:20:53;6.90;;;4.15;;
25980;SDS011;13772;52.996;9.124;2023-07-13T20:23:19;10.55;;;4.40;;
25980;SDS011;13772;52.996;9.124;2023-07-13T20:25:46;11.48;;;4.00;;
25980;SDS011;13772;52.996;9.124;2023-07-13T20:28:15;9.25;;;4.15;;
25980;SDS011;13772;52.996;9.124;2023-07-13T20:30:41;10.15;;;4.65;;
25980;SDS011;13772;52.996;9.124;2023-07-13T20:33:11;6.10;;;3.92;;
25980;SDS011;13772;52.996;9.124;2023-07-13T20:35:37;8.13;;;4.03;;
25980;SDS011;13772;52.996;9.124;2023-07-13T20:38:03;9.80;;;4.10;;
25980;SDS011;13772;52.996;9.124;2023-07-13T20:40:30;10.10;;;3.88;;
25980;SDS011;13772;52.996;9.124;2023-07-13T20:42:56;8.57;;;3.95;;
25980;SDS011;13772;52.996;9.124;2023-07-13T20:45:25;6.10;;;4.00;;
25980;SDS011;13772;52.996;9.124;2023-07-13T20:47:51;6.88;;;4.03;;
25980;SDS011;13772;52.996;9.124;2023-07-13T20:50:24;11.35;;;3.90;;
25980;SDS011;13772;52.996;9.124;2023-07-13T20:52:54;6.50;;;3.70;;
25980;SDS011;13772;52.996;9.124;2023-07-13T20:57:45;7.15;;;3.97;;
25980;SDS011;13772;52.996;9.124;2023-07-13T21:00:14;8.88;;;3.90;;
25980;SDS011;13772;52.996;9.124;2023-07-13T21:02:41;5.95;;;3.60;;
25980;SDS011;13772;52.996;9.124;2023-07-13T21:05:19;5.32;;;3.72;;
25980;SDS011;13772;52.996;9.124;2023-07-13T21:07:45;5.55;;;3.58;;
25980;SDS011;13772;52.996;9.124;2023-07-13T21:10:18;7.75;;;3.90;;
25980;SDS011;13772;52.996;9.124;2023-07-13T21:12:43;8.20;;;3.80;;
25980;SDS011;13772;52.996;9.124;2023-07-13T21:15:09;6.90;;;4.30;;
25980;SDS011;13772;52.996;9.124;2023-07-13T21:17:34;13.10;;;4.47;;
25980;SDS011;13772;52.996;9.124;2023-07-13T21:20:00;8.80;;;3.63;;
25980;SDS011;13772;52.996;9.124;2023-07-13T21:22:25;6.15;;;4.03;;
25980;SDS011;13772;52.996;9.124;2023-07-13T21:24:51;12.57;;;4.50;;
25980;SDS011;13772;52.996;9.124;2023-07-13T21:27:16;8.05;;;4.10;;
25980;SDS011;13772;52.996;9.124;2023-07-13T21:29:41;6.60;;;4.28;;
25980;SDS011;13772;52.996;9.124;2023-07-13T21:32:16;8.30;;;4.68;;
25980;SDS011;13772;52.996;9.124;2023-07-13T21:34:44;9.60;;;4.30;;
25980;SDS011;13772;52.996;9.124;2023-07-13T21:37:15;13.75;;;5.07;;
25980;SDS011;13772;52.996;9.124;2023-07-13T21:39:41;9.95;;;4.75;;
25980;SDS011;13772;52.996;9.124;2023-07-13T21:42:08;6.68;;;4.75;;
25980;SDS011;13772;52.996;9.124;2023-07-13T21:44:36;12.23;;;4.90;;
